Time;durP1;ratioP1;P1;durP2;ratioP2;P2;SDS_P1;SDS_P2;PMS_P1;PMS_P2;Temp;Humidity;BMP_temperature;BMP_pressure;BME280_temperature;BME280_humidity;BME280_pressure;Samples;Min_cycle;Max_cycle;Signal;HPM_P1;HPM_P2
2023/02/21 02:14:40;;;;;;;3.50;2.93;;;;;;;5.02;74.10;99150.13;5035854;27;102801;-71
2023/02/21 02:17:15;;;;;;;4.70;3.27;;;;;;;5.13;73.98;99155.75;5033422;27;103922;-70
2023/02/21 02:20:30;;;;;;;3.43;2.73;;;;;;;5.53;72.55;99157.47;5043106;27;103214;-71
2023/02/21 02:23:29;;;;;;;2.93;2.23;;;;;;;5.65;71.68;99146.41;5008493;27;103285;-71
2023/02/21 02:26:27;;;;;;;5.53;3.00;;;;;;;5.57;70.36;99145.91;5037259;27;102659;-71
2023/02/21 02:29:18;;;;;;;3.23;2.17;;;;;;;5.63;71.23;99143.88;5042985;27;102744;-71
2023/02/21 02:32:09;;;;;;;2.90;2.33;;;;;;;5.66;71.01;99142.88;5029680;27;103422;-71
2023/02/21 02:34:51;;;;;;;4.97;4.00;;;;;;;4.87;71.94;99141.13;5032589;27;103273;-71
2023/02/21 02:37:23;;;;;;;4.47;2.90;;;;;;;5.05;73.39;99145.56;5039719;27;102614;-71
2023/02/21 02:40:02;;;;;;;5.30;3.30;;;;;;;4.62;73.78;99145.69;5047811;27;104004;-71
2023/02/21 02:42:51;;;;;;;4.27;2.87;;;;;;;4.48;74.88;99150.66;5048524;27;103292;-71
2023/02/21 02:45:25;;;;;;;7.97;4.13;;;;;;;4.49;75.14;99144.50;5033754;27;103249;-72
2023/02/21 02:47:58;;;;;;;4.00;2.70;;;;;;;4.54;76.59;99142.53;5039618;27;102683;-71
2023/02/21 02:50:32;;;;;;;3.50;2.10;;;;;;;4.43;75.65;99143.00;5040340;27;104133;-71
2023/02/21 02:53:02;;;;;;;3.77;2.70;;;;;;;4.50;75.39;99138.34;5033093;27;104101;-71
2023/02/21 02:55:39;;;;;;;5.73;3.47;;;;;;;4.23;74.66;99134.22;5041834;27;103326;-71
2023/02/21 02:58:09;;;;;;;3.13;2.17;;;;;;;4.22;76.49;99136.00;5035144;27;102765;-71
2023/02/21 03:00:42;;;;;;;4.23;2.90;;;;;;;4.42;75.96;99135.19;5039299;27;104205;-71
2023/02/21 03:03:30;;;;;;;3.70;2.50;;;;;;;4.36;75.47;99138.06;5043647;27;103330;-71
2023/02/21 03:06:17;;;;;;;4.87;2.30;;;;;;;4.50;75.38;99146.19;5042146;27;103227;-71
2023/02/21 03:08:52;;;;;;;6.53;2.50;;;;;;;4.57;74.82;99139.81;5045846;27;102766;-71
2023/02/21 03:11:22;;;;;;;2.80;2.47;;;;;;;3.86;77.92;99146.13;5039874;27;103350;-71
2023/02/21 03:13:54;;;;;;;4.10;3.03;;;;;;;4.21;77.54;99147.34;5038335;27;103935;-71
2023/02/21 03:16:26;;;;;;;3.97;2.70;;;;;;;4.61;75.51;99149.22;5045094;27;105092;-71
2023/02/21 03:18:59;;;;;;;6.00;3.10;;;;;;;3.67;77.79;99150.34;5039840;27;102662;-71
2023/02/21 03:21:34;;;;;;;3.23;2.30;;;;;;;4.32;77.13;99139.09;5046426;27;103011;-71
2023/02/21 03:24:05;;;;;;;3.27;2.50;;;;;;;4.52;74.83;99139.16;5047084;27;103710;-71
2023/02/21 03:26:36;;;;;;;3.67;2.53;;;;;;;3.96;77.30;99139.63;5034064;27;104164;-71
2023/02/21 03:29:31;;;;;;;4.10;2.80;;;;;;;4.17;77.05;99143.16;5041030;27;102596;-71
2023/02/21 03:34:38;;;;;;;4.90;2.60;;;;;;;3.93;76.44;99138.91;5032026;27;104343;-71
2023/02/21 03:37:20;;;;;;;4.83;2.73;;;;;;;3.50;77.86;99145.75;5040209;27;103593;-71
2023/02/21 03:39:51;;;;;;;4.57;2.57;;;;;;;3.31;80.19;99149.09;5051721;27;102666;-71
2023/02/21 03:42:19;;;;;;;4.33;2.50;;;;;;;3.76;79.55;99149.97;5038857;27;102855;-71
2023/02/21 03:44:47;;;;;;;3.20;2.40;;;;;;;3.89;77.33;99140.78;5035894;27;105193;-71
2023/02/21 03:47:16;;;;;;;5.57;2.77;;;;;;;3.93;77.15;99139.75;5053219;27;103258;-71
2023/02/21 03:49:44;;;;;;;4.80;2.20;;;;;;;4.54;75.24;99134.69;5047807;27;102871;-71
2023/02/21 03:52:14;;;;;;;4.30;3.27;;;;;;;4.28;75.00;99145.34;5040333;27;103780;-71
2023/02/21 03:54:42;;;;;;;5.20;2.60;;;;;;;4.50;75.79;99138.34;5039365;27;103721;-71
2023/02/21 03:57:15;;;;;;;4.23;2.90;;;;;;;4.71;74.71;99137.47;5040195;27;105021;-71
2023/02/21 03:59:46;;;;;;;3.63;2.03;;;;;;;4.76;73.96;99137.25;5041563;27;102885;-71
2023/02/21 04:02:15;;;;;;;3.70;2.83;;;;;;;4.77;73.04;99152.94;5034415;27;104244;-71
2023/02/21 04:04:43;;;;;;;5.63;3.13;;;;;;;4.50;72.24;99143.56;5040385;27;104018;-70
2023/02/21 04:07:17;;;;;;;4.70;2.80;;;;;;;4.11;75.94;99148.63;5032020;27;103177;-71
2023/02/21 04:09:46;;;;;;;6.37;3.70;;;;;;;3.90;75.77;99150.31;5045881;27;104250;-71
2023/02/21 04:12:18;;;;;;;6.00;2.47;;;;;;;4.21;76.46;99143.91;5037231;27;102772;-70
2023/02/21 04:14:46;;;;;;;4.20;2.80;;;;;;;4.46;75.67;99142.00;5040636;27;105396;-71
2023/02/21 04:17:14;;;;;;;5.43;3.43;;;;;;;4.43;74.07;99145.59;5032027;27;103175;-70
2023/02/21 04:19:44;;;;;;;3.43;2.90;;;;;;;4.31;74.44;99140.88;5043291;27;102674;-71
2023/02/21 04:22:12;;;;;;;4.90;3.50;;;;;;;3.70;76.03;99152.84;5045036;27;102860;-70
2023/02/21 04:24:43;;;;;;;3.93;2.83;;;;;;;3.62;77.10;99151.44;5042255;27;105035;-70
2023/02/21 04:27:13;;;;;;;3.30;2.47;;;;;;;3.72;76.66;99153.63;5033375;27;103169;-71
2023/02/21 04:29:45;;;;;;;6.10;3.93;;;;;;;3.33;77.79;99144.66;5029127;27;102574;-70
2023/02/21 04:32:13;;;;;;;5.37;3.97;;;;;;;3.39;79.48;99147.06;5028967;27;103341;-70
2023/02/21 04:34:41;;;;;;;5.00;3.93;;;;;;;3.58;79.04;99157.66;5024146;27;103386;-68
2023/02/21 04:37:09;;;;;;;3.60;2.97;;;;;;;4.01;77.67;99150.75;5031248;27;103286;-69
2023/02/21 04:39:37;;;;;;;9.83;4.80;;;;;;;3.72;76.17;99153.63;5030285;27;102821;-69
2023/02/21 04:42:06;;;;;;;7.93;4.43;;;;;;;3.62;78.76;99154.88;5045618;27;104129;-69
2023/02/21 04:44:34;;;;;;;5.20;3.83;;;;;;;3.81;78.85;99158.53;5047575;27;103989;-70
2023/02/21 04:47:04;;;;;;;5.23;3.50;;;;;;;4.12;77.49;99152.13;5040590;27;103262;-70
2023/02/21 04:49:32;;;;;;;3.67;3.00;;;;;;;4.25;76.43;99150.72;5049338;27;102593;-70
2023/02/21 04:52:00;;;;;;;6.20;4.13;;;;;;;4.30;76.13;99149.63;5049811;27;102873;-70
2023/02/21 04:54:28;;;;;;;6.03;3.63;;;;;;;4.19;76.26;99143.09;5045606;27;103017;-70
2023/02/21 04:56:55;;;;;;;6.23;4.33;;;;;;;4.10;76.44;99142.56;5042364;27;103161;-69
2023/02/21 04:59:27;;;;;;;9.20;4.47;;;;;;;3.66;78.57;99135.56;5038170;27;103128;-69
2023/02/21 05:01:55;;;;;;;8.23;4.40;;;;;;;4.01;78.69;99142.09;5044362;27;104083;-68
2023/02/21 05:04:22;;;;;;;4.23;3.50;;;;;;;4.06;77.99;99138.38;5045471;27;104112;-70
2023/02/21 05:06:50;;;;;;;5.30;3.73;;;;;;;4.21;77.24;99130.84;5051139;27;102995;-72
2023/02/21 05:09:18;;;;;;;10.07;5.10;;;;;;;3.98;76.68;99135.22;5046403;27;102710;-70
2023/02/21 05:11:46;;;;;;;5.07;4.23;;;;;;;3.89;78.27;99127.72;5046719;27;103952;-68
2023/02/21 05:14:13;;;;;;;9.50;4.77;;;;;;;3.28;81.00;99136.16;5051237;27;103901;-70
2023/02/21 05:16:43;;;;;;;6.27;4.90;;;;;;;3.71;80.31;99133.63;5049963;27;103359;-72
2023/02/21 05:19:11;;;;;;;6.83;4.93;;;;;;;3.20;80.90;99133.78;5048536;27;102652;-70
2023/02/21 05:21:39;;;;;;;5.47;4.43;;;;;;;3.37;80.17;99133.16;5045715;27;102756;-69
2023/02/21 05:24:07;;;;;;;8.03;5.00;;;;;;;3.37;81.12;99128.81;5038989;27;103307;-69
2023/02/21 05:26:37;;;;;;;6.73;4.00;;;;;;;3.83;80.09;99122.72;5039589;27;103289;-70
2023/02/21 05:29:05;;;;;;;8.07;4.60;;;;;;;4.01;78.58;99123.78;5035893;27;102590;-70
2023/02/21 05:31:33;;;;;;;6.33;4.97;;;;;;;3.74;78.46;99127.44;5043648;27;104136;-70
2023/02/21 05:34:02;;;;;;;7.63;4.90;;;;;;;3.55;79.58;99129.03;5045810;27;103276;-70
2023/02/21 05:36:30;;;;;;;6.57;4.50;;;;;;;3.91;79.55;99120.66;5045444;27;103175;-70
2023/02/21 05:38:58;;;;;;;4.90;4.03;;;;;;;4.08;78.86;99122.59;5042537;27;102676;-70
2023/02/21 05:41:26;;;;;;;6.50;4.43;;;;;;;4.13;76.87;99131.13;5047274;27;104021;-70
2023/02/21 05:43:54;;;;;;;7.17;4.50;;;;;;;4.24;77.35;99120.25;5045683;27;104318;-70
2023/02/21 05:46:24;;;;;;;9.47;5.20;;;;;;;4.04;76.42;99123.66;5050039;27;103278;-69
2023/02/21 05:48:53;;;;;;;6.20;4.80;;;;;;;3.98;77.01;99127.38;5044007;27;102553;-70
2023/02/21 05:51:22;;;;;;;6.43;5.07;;;;;;;3.30;80.18;99136.94;5041916;27;103222;-70
2023/02/21 05:53:51;;;;;;;9.63;5.70;;;;;;;3.03;81.36;99136.16;5041228;27;102995;-70
2023/02/21 05:56:21;;;;;;;8.03;4.57;;;;;;;3.21;82.33;99142.47;5044329;27;103192;-70
2023/02/21 05:58:49;;;;;;;6.70;3.50;;;;;;;3.74;80.81;99138.75;5029851;27;102698;-70
2023/02/21 06:01:17;;;;;;;5.10;3.87;;;;;;;3.98;79.57;99129.13;5031095;27;102988;-70
2023/02/21 06:03:45;;;;;;;11.63;5.20;;;;;;;3.71;78.79;99135.38;5033119;27;103616;-70
2023/02/21 06:06:15;;;;;;;8.07;5.00;;;;;;;3.04;82.66;99131.78;5045925;27;103234;-70
2023/02/21 06:08:46;;;;;;;8.40;4.53;;;;;;;3.38;82.14;99124.44;5065225;27;102659;-72
2023/02/21 06:11:14;;;;;;;7.57;4.13;;;;;;;3.30;81.68;99123.88;5063867;27;102699;-70
2023/02/21 06:13:43;;;;;;;6.73;4.00;;;;;;;2.81;83.81;99128.22;5065974;27;104631;-71
2023/02/21 06:16:10;;;;;;;10.60;4.30;;;;;;;2.66;85.13;99128.75;5067390;27;103182;-70
2023/02/21 06:18:38;;;;;;;8.60;4.30;;;;;;;2.81;84.89;99123.00;5068640;27;103201;-71
2023/02/21 06:21:06;;;;;;;5.63;3.90;;;;;;;2.92;84.36;99125.22;5070144;27;103436;-70
2023/02/21 06:23:34;;;;;;;6.77;3.70;;;;;;;2.67;84.52;99135.66;5059389;27;103892;-71
2023/02/21 06:26:03;;;;;;;5.83;4.30;;;;;;;2.60;86.93;99136.78;5068229;27;104374;-71
2023/02/21 06:28:31;;;;;;;7.83;3.87;;;;;;;2.83;84.77;99136.84;5059958;27;104192;-71
2023/02/21 06:30:59;;;;;;;8.23;4.40;;;;;;;2.46;86.89;99146.81;5067496;27;102884;-70
2023/02/21 06:33:27;;;;;;;9.57;4.07;;;;;;;2.21;89.35;99153.72;5062090;27;103965;-70
2023/02/21 06:35:56;;;;;;;8.10;4.67;;;;;;;2.42;87.86;99145.19;5063073;27;103201;-73
2023/02/21 06:38:23;;;;;;;8.90;4.37;;;;;;;2.86;86.43;99136.72;5065747;27;102537;-74
2023/02/21 06:40:53;;;;;;;6.20;4.33;;;;;;;3.23;84.85;99141.50;5064100;27;102739;-74
2023/02/21 06:43:22;;;;;;;6.87;4.50;;;;;;;3.21;84.17;99148.56;5069290;27;104263;-75
2023/02/21 06:45:50;;;;;;;8.07;4.37;;;;;;;3.21;83.96;99145.09;5060785;27;103355;-75
2023/02/21 06:48:18;;;;;;;9.63;5.23;;;;;;;3.40;83.88;99143.50;5072982;27;102712;-74
2023/02/21 06:50:46;;;;;;;10.67;5.70;;;;;;;3.46;83.35;99145.91;5062184;27;102659;-73
2023/02/21 06:53:14;;;;;;;8.87;6.13;;;;;;;3.28;83.85;99152.66;5059669;27;105336;-73
2023/02/21 06:55:42;;;;;;;9.73;5.73;;;;;;;3.76;81.20;99149.97;5062855;27;103266;-73
2023/02/21 06:58:10;;;;;;;11.63;5.80;;;;;;;3.84;80.37;99137.50;5058479;27;102693;-77
2023/02/21 07:00:39;;;;;;;7.60;5.77;;;;;;;4.04;80.18;99152.41;5062844;27;102746;-74
2023/02/21 07:03:07;;;;;;;8.83;5.80;;;;;;;3.80;80.89;99146.34;5072028;27;104418;-74
2023/02/21 07:05:37;;;;;;;7.00;5.60;;;;;;;3.91;80.94;99146.78;5070389;27;103225;-78
2023/02/21 07:08:05;;;;;;;7.10;5.10;;;;;;;4.32;79.86;99142.56;5070135;27;102550;-80
2023/02/21 07:10:32;;;;;;;7.10;5.23;;;;;;;4.39;79.97;99143.16;5072573;27;103820;-77
2023/02/21 07:13:00;;;;;;;7.87;6.10;;;;;;;4.14;81.21;99145.91;5074591;27;104029;-77
2023/02/21 07:15:28;;;;;;;7.17;5.37;;;;;;;4.44;80.20;99141.19;5059907;27;103253;-74
2023/02/21 07:17:57;;;;;;;10.33;5.83;;;;;;;5.07;78.69;99138.53;5058780;27;102611;-73
2023/02/21 07:20:27;;;;;;;7.80;4.90;;;;;;;5.40;77.65;99137.94;5069441;27;102933;-73
2023/02/21 07:22:55;;;;;;;8.37;6.53;;;;;;;5.71;74.87;99146.13;5073422;27;103928;-74
2023/02/21 07:25:23;;;;;;;9.70;5.30;;;;;;;6.05;73.71;99141.06;5056829;27;103939;-74
2023/02/21 07:27:52;;;;;;;6.13;5.33;;;;;;;6.28;72.04;99132.09;5064095;27;102537;-74
2023/02/21 07:30:21;;;;;;;6.60;5.07;;;;;;;6.62;71.62;99131.31;5054301;27;102701;-74
2023/02/21 07:32:49;;;;;;;8.80;5.87;;;;;;;6.75;70.67;99132.41;5051430;27;104184;-73
2023/02/21 07:35:18;;;;;;;9.23;5.57;;;;;;;7.06;70.79;99131.69;5056173;27;103312;-74
2023/02/21 07:37:46;;;;;;;5.70;5.10;;;;;;;7.38;69.69;99131.72;5053542;27;102648;-73
2023/02/21 07:40:14;;;;;;;7.63;6.00;;;;;;;7.48;68.45;99130.31;5053869;27;103874;-73
2023/02/21 07:42:43;;;;;;;10.03;7.00;;;;;;;7.50;68.48;99138.97;5059269;27;103334;-73
2023/02/21 07:45:12;;;;;;;10.50;5.53;;;;;;;8.11;67.96;99135.66;5065016;27;103265;-73
2023/02/21 07:47:40;;;;;;;9.33;4.90;;;;;;;8.41;66.83;99127.84;5056497;27;102863;-73
2023/02/21 07:50:08;;;;;;;9.07;6.17;;;;;;;8.78;65.68;99123.97;5066845;27;102964;-72
2023/02/21 07:52:38;;;;;;;13.17;6.80;;;;;;;9.02;62.78;99125.13;5065168;27;103202;-71
2023/02/21 07:55:06;;;;;;;7.80;5.60;;;;;;;9.12;63.90;99123.66;5067916;27;103302;-71
2023/02/21 07:57:34;;;;;;;11.37;5.70;;;;;;;9.43;62.66;99122.66;5060948;27;102598;-71
2023/02/21 08:00:03;;;;;;;10.00;5.70;;;;;;;9.60;61.38;99127.75;5065996;27;103507;-71
2023/02/21 08:02:39;;;;;;;9.73;4.90;;;;;;;9.89;60.00;99125.00;5064487;27;103291;-71
2023/02/21 08:05:08;;;;;;;7.97;4.83;;;;;;;8.98;61.60;99128.91;5062132;27;103238;-72
2023/02/21 08:07:37;;;;;;;9.17;4.57;;;;;;;9.66;59.78;99128.22;5067370;27;103852;-73
2023/02/21 08:10:06;;;;;;;10.90;5.03;;;;;;;10.01;60.38;99130.44;5068623;27;104041;-72
2023/02/21 08:12:34;;;;;;;9.60;5.40;;;;;;;9.99;59.11;99127.91;5066106;27;103268;-72
2023/02/21 08:15:02;;;;;;;6.27;3.97;;;;;;;10.57;59.71;99129.47;5058990;27;103170;-72
2023/02/21 08:17:29;;;;;;;10.00;5.37;;;;;;;10.10;58.00;99130.72;5055027;27;102558;-72
2023/02/21 08:19:59;;;;;;;10.27;5.90;;;;;;;9.83;58.33;99135.06;5075751;27;103161;-72
2023/02/21 08:22:27;;;;;;;6.93;5.10;;;;;;;10.07;60.98;99137.97;5059879;27;104178;-72
2023/02/21 08:24:56;;;;;;;11.53;5.17;;;;;;;10.69;58.60;99137.47;5067502;27;103289;-72
2023/02/21 08:27:24;;;;;;;8.63;4.50;;;;;;;11.24;57.30;99128.44;5060041;27;102621;-73
2023/02/21 08:29:54;;;;;;;5.73;4.67;;;;;;;11.26;57.08;99137.13;5063369;27;103997;-72
2023/02/21 08:32:22;;;;;;;8.63;4.43;;;;;;;11.23;55.64;99132.06;5069934;27;104051;-72
2023/02/21 08:34:50;;;;;;;5.93;4.70;;;;;;;11.43;54.89;99128.88;5058763;27;103339;-72
2023/02/21 08:37:18;;;;;;;5.90;3.80;;;;;;;12.39;54.20;99130.88;5063582;27;102624;-77
2023/02/21 08:39:48;;;;;;;8.73;3.97;;;;;;;12.37;53.13;99132.78;5066369;27;104045;-74
2023/02/21 08:42:19;;;;;;;7.93;4.90;;;;;;;12.37;52.86;99127.50;5059038;27;103040;-71
2023/02/21 08:44:48;;;;;;;7.80;4.30;;;;;;;12.44;52.48;99128.72;5057194;27;103128;-72
2023/02/21 08:47:17;;;;;;;5.17;4.43;;;;;;;12.72;52.03;99123.06;5062751;27;102800;-73
2023/02/21 08:49:46;;;;;;;7.23;4.60;;;;;;;12.46;52.73;99126.81;5056589;27;102741;-71
2023/02/21 08:52:20;;;;;;;11.90;5.73;;;;;;;12.52;52.67;99124.53;5081128;27;103777;-72
2023/02/21 08:54:51;;;;;;;5.93;4.37;;;;;;;12.76;51.95;99120.09;5069129;27;104158;-71
2023/02/21 08:57:21;;;;;;;5.93;4.50;;;;;;;13.31;51.26;99116.78;5068595;27;102952;-74
2023/02/21 08:59:49;;;;;;;11.27;4.57;;;;;;;12.61;50.88;99126.53;5062220;27;103140;-76
2023/02/21 09:02:21;;;;;;;6.33;4.60;;;;;;;13.29;51.60;99124.03;5063826;27;103128;-74
2023/02/21 09:04:49;;;;;;;10.37;5.30;;;;;;;13.03;51.57;99117.16;5050170;27;105099;-72
2023/02/21 09:07:21;;;;;;;7.53;5.10;;;;;;;12.87;51.54;99116.63;5061857;27;102742;-73
2023/02/21 09:09:50;;;;;;;6.67;4.47;;;;;;;13.17;50.37;99119.66;5066226;27;103819;-77
2023/02/21 09:12:19;;;;;;;5.70;4.30;;;;;;;13.71;50.26;99121.66;5064149;27;103162;-78
2023/02/21 09:14:49;;;;;;;6.37;4.50;;;;;;;13.89;49.60;99121.03;5071094;27;104340;-75
2023/02/21 09:17:18;;;;;;;8.83;5.67;;;;;;;13.59;50.76;99117.31;5072173;27;102595;-76
2023/02/21 09:19:47;;;;;;;10.10;5.87;;;;;;;13.79;49.85;99121.91;5067279;27;102914;-76
2023/02/21 09:22:17;;;;;;;10.87;6.50;;;;;;;13.39;50.67;99116.19;5060266;27;104621;-76
2023/02/21 09:24:46;;;;;;;6.23;4.00;;;;;;;14.27;48.22;99107.38;5055370;27;103307;-82
2023/02/21 09:27:16;;;;;;;10.23;5.50;;;;;;;13.95;49.15;99106.44;5052714;27;103028;-74
2023/02/21 09:29:46;;;;;;;8.37;4.77;;;;;;;14.69;48.62;99112.81;5066799;27;102951;-72
2023/02/21 09:32:16;;;;;;;9.70;5.50;;;;;;;14.77;48.02;99115.69;5070903;27;103670;-77
2023/02/21 09:34:45;;;;;;;10.63;5.47;;;;;;;14.47;47.74;99105.78;5068017;27;103222;-74
2023/02/21 09:37:13;;;;;;;8.63;5.37;;;;;;;13.82;48.42;99116.34;5074550;27;102609;-74
2023/02/21 09:39:41;;;;;;;8.90;5.43;;;;;;;13.82;49.53;99106.56;5064817;27;102816;-74
2023/02/21 09:42:14;;;;;;;6.33;4.13;;;;;;;14.29;50.16;99100.09;5045961;27;104315;-78
2023/02/21 09:44:47;;;;;;;8.37;5.37;;;;;;;14.58;48.98;99099.56;5075428;27;103281;-76
2023/02/21 09:47:22;;;;;;;6.80;4.53;;;;;;;14.80;48.89;99095.00;5073390;27;102661;-76
2023/02/21 09:49:57;;;;;;;8.87;5.17;;;;;;;13.65;50.03;99103.53;5058261;27;102849;-71
2023/02/21 09:52:32;;;;;;;8.60;4.60;;;;;;;14.68;48.72;99096.03;5069947;27;104357;-72
2023/02/21 09:55:07;;;;;;;9.73;5.43;;;;;;;14.50;48.74;99094.91;5065804;27;103149;-68
2023/02/21 09:57:37;;;;;;;8.20;5.10;;;;;;;14.87;48.24;99090.03;5059814;27;102686;-69
2023/02/21 10:00:17;;;;;;;6.90;4.43;;;;;;;13.67;48.85;99096.34;5052157;27;103945;-70
2023/02/21 10:02:59;;;;;;;12.80;5.60;;;;;;;14.79;47.31;99088.00;5053999;27;103925;-71
2023/02/21 10:05:39;;;;;;;5.23;4.43;;;;;;;14.31;47.68;99087.56;5059448;27;103328;-70
2023/02/21 10:08:16;;;;;;;8.77;4.80;;;;;;;14.61;48.33;99084.22;5073081;27;102613;-70
2023/02/21 10:10:46;;;;;;;7.20;4.33;;;;;;;14.57;47.65;99082.78;5052685;27;104309;-69
2023/02/21 10:13:32;;;;;;;7.27;4.50;;;;;;;14.37;46.72;99080.94;5054600;27;103068;-71
2023/02/21 10:16:09;;;;;;;8.60;3.77;;;;;;;14.85;46.65;99082.16;5069246;27;103425;-70
2023/02/21 10:18:48;;;;;;;5.37;3.63;;;;;;;15.64;45.80;99078.91;5058608;27;102753;-69
2023/02/21 10:21:25;;;;;;;5.73;4.57;;;;;;;15.30;46.35;99081.94;5066054;27;102856;-67
2023/02/21 10:23:56;;;;;;;9.30;4.00;;;;;;;15.73;46.01;99079.06;5075451;27;103404;-67
2023/02/21 10:26:29;;;;;;;6.70;4.83;;;;;;;15.36;46.43;99082.22;5071532;27;104316;-68
2023/02/21 10:28:57;;;;;;;7.00;4.43;;;;;;;15.29;46.36;99075.75;5055735;27;103355;-69
2023/02/21 10:31:35;;;;;;;9.03;4.47;;;;;;;15.47;47.20;99076.00;5049619;27;103056;-70
2023/02/21 10:34:07;;;;;;;6.17;3.87;;;;;;;15.46;47.06;99082.28;5051028;27;103443;-68
2023/02/21 10:36:35;;;;;;;7.50;3.87;;;;;;;15.71;45.73;99075.72;5054525;27;104308;-70
2023/02/21 10:39:06;;;;;;;6.63;3.90;;;;;;;16.05;45.47;99071.78;5047484;27;102755;-70
2023/02/21 10:41:40;;;;;;;7.33;3.57;;;;;;;15.50;44.87;99073.94;5053057;27;103199;-70
2023/02/21 10:44:13;;;;;;;6.73;3.97;;;;;;;14.78;45.99;99074.84;5054035;27;103701;-70
2023/02/21 10:46:46;;;;;;;4.50;3.20;;;;;;;14.36;46.47;99079.22;5048974;27;103427;-70
2023/02/21 10:49:23;;;;;;;2.63;2.10;;;;;;;15.54;46.44;99067.38;5047044;27;102859;-67
2023/02/21 10:52:06;;;;;;;6.97;3.07;;;;;;;15.17;45.21;99065.31;5042791;27;103501;-69
2023/02/21 10:54:35;;;;;;;7.83;4.00;;;;;;;14.97;45.14;99064.34;5049824;27;103255;-70
2023/02/21 10:57:07;;;;;;;8.13;3.57;;;;;;;15.56;44.93;99068.09;5053627;27;103395;-69
2023/02/21 10:59:39;;;;;;;5.60;3.20;;;;;;;15.21;46.08;99061.41;5048922;27;102828;-70
2023/02/21 11:02:26;;;;;;;4.10;3.40;;;;;;;16.38;45.01;99044.75;5050633;27;103808;-68
2023/02/21 11:05:06;;;;;;;5.73;3.90;;;;;;;15.73;45.41;99058.63;5055117;27;103853;-73
2023/02/21 11:07:39;;;;;;;7.47;4.20;;;;;;;15.03;46.67;99054.03;5060497;27;104316;-73
2023/02/21 11:10:32;;;;;;;6.38;4.32;;;;;;;15.25;47.45;99041.53;5064531;27;103011;-73
2023/02/21 11:13:14;;;;;;;8.57;4.03;;;;;;;16.65;45.38;99044.06;5055629;27;103023;-73
2023/02/21 11:15:44;;;;;;;4.93;3.90;;;;;;;16.04;45.50;99046.09;5047513;27;103255;-69
2023/02/21 11:18:16;;;;;;;6.18;4.15;;;;;;;14.86;47.85;99051.94;5050736;27;102965;-70
2023/02/21 11:20:47;;;;;;;4.33;3.20;;;;;;;16.63;45.46;99036.22;5048709;27;102740;-68
2023/02/21 11:23:24;;;;;;;5.68;3.58;;;;;;;16.30;44.91;99030.44;5054966;27;103145;-69
2023/02/21 11:25:59;;;;;;;6.97;3.47;;;;;;;16.42;45.87;99018.66;5054111;27;104279;-69
2023/02/21 11:28:29;;;;;;;3.95;3.55;;;;;;;15.87;45.94;99023.63;5057284;27;103151;-70
2023/02/21 11:31:16;;;;;;;4.53;3.03;;;;;;;16.93;44.21;99011.19;5044616;27;102843;-68
2023/02/21 11:33:53;;;;;;;4.35;3.38;;;;;;;16.31;44.22;99008.13;5055436;27;102914;-69
2023/02/21 11:36:28;;;;;;;3.30;2.90;;;;;;;17.50;43.33;99004.84;5066614;27;103207;-69
2023/02/21 11:39:06;;;;;;;5.43;3.65;;;;;;;16.48;44.18;99002.06;5040184;27;103175;-69
2023/02/21 11:41:46;;;;;;;5.68;3.40;;;;;;;17.93;42.76;98991.75;5054368;27;102716;-69
2023/02/21 11:44:27;;;;;;;4.28;3.03;;;;;;;16.49;43.30;98988.63;5046723;27;103708;-68
2023/02/21 11:47:07;;;;;;;4.13;2.70;;;;;;;16.70;43.81;98983.97;5050384;27;103291;-68
2023/02/21 11:49:46;;;;;;;4.50;2.55;;;;;;;16.40;43.58;98978.78;5047244;27;104236;-68
2023/02/21 11:52:24;;;;;;;4.00;2.83;;;;;;;16.93;43.31;98971.16;5052938;27;102734;-68
2023/02/21 11:54:52;;;;;;;4.68;2.78;;;;;;;17.45;42.56;98966.22;5050791;27;103129;-68
2023/02/21 11:57:27;;;;;;;4.72;2.63;;;;;;;18.07;42.27;98962.81;5054877;27;104425;-68
2023/02/21 12:00:07;;;;;;;2.88;1.90;;;;;;;18.77;41.45;98959.28;5038666;27;103306;-68
2023/02/21 12:02:52;;;;;;;6.43;2.90;;;;;;;17.91;41.74;98958.94;5055590;27;102704;-68
2023/02/21 12:05:42;;;;;;;4.25;2.30;;;;;;;17.70;42.31;98955.72;5044653;27;102943;-68
2023/02/21 12:08:33;;;;;;;3.60;2.40;;;;;;;16.89;42.30;98947.59;5041423;27;104185;-68
2023/02/21 12:11:13;;;;;;;3.08;2.17;;;;;;;17.55;41.89;98940.31;5051131;27;103250;-67
2023/02/21 12:13:49;;;;;;;4.55;2.28;;;;;;;18.17;41.04;98928.81;5049671;27;102866;-68
2023/02/21 12:16:34;;;;;;;3.20;2.17;;;;;;;18.79;39.93;98920.66;5055909;27;103309;-68
2023/02/21 12:19:19;;;;;;;4.82;1.88;;;;;;;19.11;39.75;98912.78;5051093;27;104364;-68
2023/02/21 12:22:02;;;;;;;5.28;1.85;;;;;;;17.66;41.96;98911.56;5067697;27;103210;-68
2023/02/21 12:24:48;;;;;;;5.10;2.28;;;;;;;18.14;41.36;98910.38;5043842;27;102687;-67
2023/02/21 12:27:22;;;;;;;2.58;1.90;;;;;;;18.91;40.32;98900.66;5050310;27;103831;-68
2023/02/21 12:30:06;;;;;;;2.80;2.30;;;;;;;18.58;40.72;98901.44;5055977;27;104004;-68
2023/02/21 12:32:49;;;;;;;2.45;2.25;;;;;;;18.38;39.92;98894.56;5062913;27;103187;-68
2023/02/21 12:35:50;;;;;;;3.20;2.05;;;;;;;19.49;39.22;98878.50;5054690;27;103074;-68
2023/02/21 12:38:25;;;;;;;3.17;1.95;;;;;;;20.00;38.76;98878.28;5054741;27;103978;-67
2023/02/21 12:41:02;;;;;;;2.03;1.75;;;;;;;20.20;38.62;98878.81;5057475;27;103241;-68
2023/02/21 12:43:46;;;;;;;4.22;2.00;;;;;;;19.57;38.62;98862.44;5047212;27;103431;-67
2023/02/21 12:46:22;;;;;;;4.55;2.40;;;;;;;19.35;39.63;98863.03;5061493;27;103018;-68
2023/02/21 12:48:58;;;;;;;3.42;2.08;;;;;;;18.21;40.42;98863.34;5063482;27;102917;-67
2023/02/21 12:51:32;;;;;;;1.70;1.60;;;;;;;19.45;39.25;98855.75;5064663;27;103355;-68
2023/02/21 12:54:03;;;;;;;2.70;2.35;;;;;;;17.77;41.42;98852.56;5059581;27;103215;-68
2023/02/21 12:56:40;;;;;;;2.38;1.80;;;;;;;18.25;40.67;98851.31;5053956;27;103369;-68
2023/02/21 12:59:15;;;;;;;4.35;2.10;;;;;;;19.60;39.64;98833.50;5058838;27;103936;-67
2023/02/21 13:01:47;;;;;;;3.60;2.00;;;;;;;18.84;39.71;98837.19;5058072;27;103457;-66
2023/02/21 13:04:22;;;;;;;2.22;1.55;;;;;;;18.49;39.79;98838.19;5053872;27;103337;-66
2023/02/21 13:06:55;;;;;;;4.22;2.08;;;;;;;18.46;39.84;98833.94;5056990;27;102955;-67
2023/02/21 13:09:32;;;;;;;2.85;1.80;;;;;;;17.79;40.98;98831.06;5066624;27;103717;-66
2023/02/21 13:12:09;;;;;;;3.00;1.95;;;;;;;18.87;41.75;98818.97;5073168;27;103375;-66
2023/02/21 13:14:42;;;;;;;2.85;1.83;;;;;;;19.52;39.61;98808.53;5056503;27;103309;-66
2023/02/21 13:17:14;;;;;;;5.00;1.60;;;;;;;19.59;39.05;98802.31;5057473;27;103665;-66
2023/02/21 13:19:47;;;;;;;5.40;1.50;;;;;;;18.66;40.34;98809.69;5054042;27;104213;-67
2023/02/21 13:26:18;;;;;;;5.47;1.88;;;;;;;19.33;38.58;98787.34;5051263;27;104420;-66
2023/02/21 13:28:52;;;;;;;5.65;1.45;;;;;;;19.55;38.97;98786.75;5060836;27;102620;-67
2023/02/21 13:31:23;;;;;;;2.55;1.67;;;;;;;20.17;38.30;98787.94;5067798;27;107355;-66
2023/02/21 13:33:52;;;;;;;4.70;2.08;;;;;;;19.80;38.04;98777.72;5060316;27;103688;-67
2023/02/21 13:36:25;;;;;;;2.88;1.67;;;;;;;18.90;38.43;98775.84;5050415;27;104245;-67
2023/02/21 13:39:10;;;;;;;2.47;1.20;;;;;;;18.52;39.71;98766.47;5067023;27;102760;-67
2023/02/21 13:41:43;;;;;;;2.45;1.60;;;;;;;18.80;39.50;98760.91;5056923;27;103989;-66
2023/02/21 13:44:19;;;;;;;2.17;1.50;;;;;;;18.06;39.71;98765.97;5052043;27;103432;-67
2023/02/21 13:47:12;;;;;;;3.25;1.70;;;;;;;18.87;39.07;98749.38;5054446;27;103276;-67
2023/02/21 13:49:52;;;;;;;2.28;1.60;;;;;;;19.31;38.26;98752.69;5059380;27;102659;-66
2023/02/21 13:52:58;;;;;;;3.03;1.40;;;;;;;18.50;39.34;98748.88;5052078;27;103937;-66
2023/02/21 13:55:35;;;;;;;2.75;1.50;;;;;;;18.79;40.49;98744.00;5065031;27;103685;-66
2023/02/21 13:58:31;;;;;;;1.63;1.40;;;;;;;18.31;40.13;98741.06;5064419;27;103177;-67
2023/02/21 14:01:21;;;;;;;2.17;1.20;;;;;;;18.68;40.01;98738.94;5065093;27;102573;-66
2023/02/21 14:03:53;;;;;;;2.20;1.33;;;;;;;18.37;40.23;98733.25;5057651;27;103738;-67
2023/02/21 14:06:54;;;;;;;3.05;1.75;;;;;;;18.58;40.40;98724.88;5043310;27;104356;-67
2023/02/21 14:09:22;;;;;;;4.05;1.35;;;;;;;18.21;41.37;98724.28;5043981;27;103181;-66
2023/02/21 14:11:53;;;;;;;5.38;2.00;;;;;;;18.06;41.28;98717.84;5055958;27;102829;-66
2023/02/21 14:14:30;;;;;;;3.13;1.33;;;;;;;17.91;41.40;98718.41;5050520;27;103036;-66
2023/02/21 14:17:02;;;;;;;2.05;1.40;;;;;;;17.83;41.55;98713.00;5060885;27;104030;-66